createdAt,value
2023-04-14T00:00:16.653Z,98603.9
2023-04-14T00:05:52.082Z,98592.6
2023-04-14T00:11:28.158Z,98592.8
2023-04-14T00:17:06.437Z,98592.9
2023-04-14T00:22:43.086Z,98590.1
2023-04-14T00:28:18.866Z,98584.1
2023-04-14T00:33:54.345Z,98570.5
2023-04-14T00:39:30.526Z,98561.2
2023-04-14T00:45:05.665Z,98565.9
2023-04-14T00:50:42.324Z,98563.8
2023-04-14T00:56:18.348Z,98561.4
2023-04-14T01:01:57.697Z,98559.1
2023-04-14T01:07:34.168Z,98546.6
2023-04-14T01:13:10.709Z,98536.3
2023-04-14T01:18:47.837Z,98544
2023-04-14T01:24:23.394Z,98532.5
2023-04-14T01:29:59.538Z,98531
2023-04-14T01:35:35.089Z,98529.3
2023-04-14T01:41:10.609Z,98520.4
2023-04-14T01:46:53.032Z,98508.7
2023-04-14T01:52:28.588Z,98492.7
2023-04-14T01:58:06.635Z,98482.5
2023-04-14T02:03:42.437Z,98478.2
2023-04-14T02:09:19.890Z,98470.4
2023-04-14T02:14:55.514Z,98458.3
2023-04-14T02:20:30.828Z,98447.3
2023-04-14T02:26:06.407Z,98444.6
2023-04-14T02:31:42.208Z,98437.2
2023-04-14T02:37:18.518Z,98424.9
2023-04-14T02:42:54.361Z,98409.8
2023-04-14T02:48:30.756Z,98412.4
2023-04-14T02:54:27.500Z,98410.4
2023-04-14T03:00:00.617Z,98402.5
2023-04-14T03:05:36.122Z,98392.2
2023-04-14T03:11:11.564Z,98376.2
2023-04-14T03:16:46.590Z,98371.1
2023-04-14T03:22:22.226Z,98368.4
2023-04-14T03:27:57.641Z,98364.4
2023-04-14T03:33:33.587Z,98357.2
2023-04-14T03:39:09.829Z,98351.4
2023-04-14T03:44:45.293Z,98348.2
2023-04-14T03:50:21.712Z,98341
2023-04-14T03:56:18.443Z,98327.7
2023-04-14T04:01:52.417Z,98325.2
2023-04-14T04:07:29.572Z,98321.2
2023-04-14T04:13:08.893Z,98320
2023-04-14T04:18:45.417Z,98308.2
2023-04-14T04:24:21.910Z,98300
2023-04-14T04:29:58.024Z,98295.3
2023-04-14T04:35:35.166Z,98292.9
2023-04-14T04:41:10.352Z,98295.9
2023-04-14T04:46:46.795Z,98292.1
2023-04-14T04:52:22.402Z,98293.8
2023-04-14T04:57:57.993Z,98288
2023-04-14T05:03:34.275Z,98287.9
2023-04-14T05:09:09.855Z,98283
2023-04-14T05:14:46.658Z,98285.8
2023-04-14T05:20:22.178Z,98276
2023-04-14T05:26:51.619Z,98276.2
2023-04-14T05:32:52.080Z,98279.1
2023-04-14T05:38:28.734Z,98275.3
2023-04-14T05:44:05.415Z,98267.7
2023-04-14T05:49:40.458Z,98267.7
2023-04-14T05:55:37.907Z,98262.1
2023-04-14T06:01:10.836Z,98253.4
2023-04-14T06:06:46.432Z,98259.5
2023-04-14T06:12:22.840Z,98252.1
2023-04-14T06:17:59.848Z,98240
2023-04-14T06:23:35.318Z,98238
2023-04-14T06:29:11.856Z,98232.5
2023-04-14T06:34:52.756Z,98236.9
2023-04-14T06:40:28.496Z,98241
2023-04-14T06:46:05.508Z,98245.7
2023-04-14T06:51:41.034Z,98252.1
2023-04-14T06:57:17.477Z,98243.7
2023-04-14T07:02:53.503Z,98244.7
2023-04-14T07:08:30.176Z,98242.2
2023-04-14T07:14:06.351Z,98235.9
2023-04-14T07:19:41.444Z,98221
2023-04-14T07:25:18.033Z,98219
2023-04-14T07:30:54.427Z,98213.4
2023-04-14T07:36:30.520Z,98216.8
2023-04-14T07:42:06.285Z,98207.9
2023-04-14T07:47:43.308Z,98204.4
2023-04-14T07:53:43.654Z,98211
2023-04-14T07:59:17.370Z,98216
2023-04-14T08:04:52.428Z,98219.3
2023-04-14T08:10:28.206Z,98217
2023-04-14T08:16:05.194Z,98227.9
2023-04-14T08:21:41.377Z,98224.7
2023-04-14T08:27:18.669Z,98223.4
2023-04-14T08:33:00.015Z,98227.8
2023-04-14T08:38:36.076Z,98224.6
2023-04-14T08:44:12.183Z,98233.9
2023-04-14T08:49:48.502Z,98240.6
2023-04-14T08:55:45.943Z,98246
2023-04-14T09:01:19.614Z,98238.3
2023-04-14T09:06:57.211Z,98244.8
2023-04-14T09:12:34.129Z,98247.1
2023-04-14T09:18:10.339Z,98258.1
2023-04-14T09:23:47.280Z,98250.2
2023-04-14T09:29:23.055Z,98251
2023-04-14T09:34:59.452Z,98250.6
2023-04-14T09:40:35.191Z,98257.5
2023-04-14T09:46:11.913Z,98257.6
2023-04-14T09:51:48.523Z,98251.1
2023-04-14T09:57:24.027Z,98254.6
2023-04-14T10:03:01.089Z,98247.4
2023-04-14T10:08:39.048Z,98241.3
2023-04-14T10:14:14.179Z,98243
2023-04-14T10:19:49.400Z,98247.5
2023-04-14T10:25:25.066Z,98242.1
2023-04-14T10:31:00.729Z,98249.7
2023-04-14T10:36:36.469Z,98244.8
2023-04-14T10:42:14.168Z,98252.5
2023-04-14T10:47:50.423Z,98259.5
2023-04-14T10:53:48.245Z,98274.4
2023-04-14T10:59:21.874Z,98272.6
2023-04-14T11:04:58.192Z,98259.8
2023-04-14T11:10:33.812Z,98254.8
2023-04-14T11:16:10.355Z,98245.9
2023-04-14T11:21:46.162Z,98235.4
2023-04-14T11:27:22.567Z,98220.8
2023-04-14T11:32:59.392Z,98216.3
2023-04-14T11:38:36.285Z,98191.6
2023-04-14T11:44:12.119Z,98195.2
2023-04-14T11:49:49.906Z,98195.4
2023-04-14T11:55:26.071Z,98196
2023-04-14T12:01:01.521Z,98181.2
2023-04-14T12:06:36.981Z,98190.4
2023-04-14T12:12:17.758Z,98200.6
2023-04-14T12:17:57.784Z,98213.2
2023-04-14T12:23:35.292Z,98232.8
2023-04-14T12:29:11.702Z,98260
2023-04-14T12:34:46.582Z,98264.7
2023-04-14T12:40:23.645Z,98263.6
2023-04-14T12:45:59.356Z,98257.1
2023-04-14T12:51:36.705Z,98242
2023-04-14T12:57:11.794Z,98239.9
2023-04-14T13:02:48.412Z,98228.5
2023-04-14T13:08:25.065Z,98221.6
2023-04-14T13:14:00.652Z,98219
2023-04-14T13:19:36.517Z,98218
2023-04-14T13:25:12.091Z,98233
2023-04-14T13:30:47.080Z,98233.6
2023-04-14T13:36:23.147Z,98247.1
2023-04-14T13:42:00.259Z,98252.1
2023-04-14T13:47:36.682Z,98251.4
2023-04-14T13:53:13.013Z,98249.5
2023-04-14T13:58:48.361Z,98254.7
2023-04-14T14:04:25.282Z,98266.7
2023-04-14T14:10:02.113Z,98276.8
2023-04-14T14:15:37.674Z,98307.4
2023-04-14T14:21:15.308Z,98293.4
2023-04-14T14:26:52.359Z,98313.3
2023-04-14T14:32:28.971Z,98325.8
2023-04-14T14:38:04.752Z,98323.5
2023-04-14T14:43:43.262Z,98306.3
2023-04-14T14:49:21.814Z,98295.8
2023-04-14T14:54:57.143Z,98294.7
2023-04-14T15:00:33.022Z,98304.3
2023-04-14T15:06:09.403Z,98293
2023-04-14T15:11:45.419Z,98297.3
2023-04-14T15:17:21.178Z,98293.9
2023-04-14T15:22:56.259Z,98277.8
2023-04-14T15:28:32.268Z,98275.3
2023-04-14T15:34:07.611Z,98281.6
2023-04-14T15:39:43.704Z,98294.8
2023-04-14T15:45:20.830Z,98298.7
2023-04-14T15:50:56.574Z,98277.5
2023-04-14T15:56:32.851Z,98293.8
2023-04-14T16:02:09.440Z,98291.7
2023-04-14T16:07:45.589Z,98290.9
2023-04-14T16:13:22.340Z,98309.8
2023-04-14T16:18:57.931Z,98300.7
2023-04-14T16:24:33.469Z,98294
2023-04-14T16:30:10.296Z,98275.4
2023-04-14T16:35:49.264Z,98286.1
2023-04-14T16:41:25.575Z,98286.6
2023-04-14T16:47:01.455Z,98292.5
2023-04-14T16:52:37.208Z,98294.7
2023-04-14T16:58:12.810Z,98305.7
2023-04-14T17:03:49.753Z,98318.7
2023-04-14T17:09:26.661Z,98322.4
2023-04-14T17:15:02.114Z,98322.7
2023-04-14T17:20:38.380Z,98336.4
2023-04-14T17:26:14.592Z,98339.9
2023-04-14T17:31:50.682Z,98332.7
2023-04-14T17:37:26.761Z,98324.6
2023-04-14T17:43:02.218Z,98337.4
2023-04-14T17:48:38.283Z,98359.8
2023-04-14T17:54:14.376Z,98374.1
2023-04-14T17:59:50.992Z,98391.4
2023-04-14T18:05:30.233Z,98434.7
2023-04-14T18:11:06.908Z,98437.3
2023-04-14T18:16:43.413Z,98444.4
2023-04-14T18:22:19.090Z,98447.5
2023-04-14T18:28:03.582Z,98446.2
2023-04-14T18:33:41.352Z,98451.6
2023-04-14T18:39:17.027Z,98449.1
2023-04-14T18:44:53.536Z,98444.9
2023-04-14T18:50:30.460Z,98445.4
2023-04-14T18:56:10.789Z,98447.8
2023-04-14T19:01:47.717Z,98439.5
2023-04-14T19:07:23.766Z,98433.1
2023-04-14T19:13:00.099Z,98432.6
2023-04-14T19:18:35.021Z,98470.6
2023-04-14T19:24:11.575Z,98495.2
2023-04-14T19:29:47.007Z,98517
2023-04-14T19:35:22.144Z,98529.6
2023-04-14T19:40:58.404Z,98556.1
2023-04-14T19:46:34.485Z,98560.8
2023-04-14T19:52:11.126Z,98571.7
2023-04-14T19:57:47.795Z,98587.1
2023-04-14T20:03:23.989Z,98591.5
2023-04-14T20:09:02.291Z,98596.8
2023-04-14T20:14:41.222Z,98605.1
2023-04-14T20:20:16.932Z,98611.4
2023-04-14T20:25:51.957Z,98622.1
2023-04-14T20:31:28.718Z,98622.7
2023-04-14T20:37:05.042Z,98628.7
2023-04-14T20:42:40.991Z,98638.8
2023-04-14T20:48:17.207Z,98638.5
2023-04-14T20:53:53.782Z,98639.9
2023-04-14T20:59:29.247Z,98632.9
2023-04-14T21:05:04.564Z,98640.2
2023-04-14T21:11:19.020Z,98639.3
2023-04-14T21:17:00.023Z,98635.8
2023-04-14T21:22:36.200Z,98631.6
2023-04-14T21:28:11.541Z,98627.7
2023-04-14T21:33:48.242Z,98624.4
2023-04-14T21:39:24.233Z,98619
